sensor_id;sensor_type;location;lat;lon;timestamp;P1;durP1;ratioP1;P2;durP2;ratioP2
52650;SDS011;38537;47.226;39.702;2022-12-18T00:01:41;6.75;;;5.03;;
52650;SDS011;38537;47.226;39.702;2022-12-18T00:04:14;6.25;;;5.03;;
52650;SDS011;38537;47.226;39.702;2022-12-18T00:06:48;7.18;;;5.53;;
52650;SDS011;38537;47.226;39.702;2022-12-18T00:09:16;5.85;;;4.80;;
52650;SDS011;38537;47.226;39.702;2022-12-18T00:11:44;6.68;;;4.85;;
52650;SDS011;38537;47.226;39.702;2022-12-18T00:14:12;7.55;;;4.82;;
52650;SDS011;38537;47.226;39.702;2022-12-18T00:16:43;6.72;;;4.88;;
52650;SDS011;38537;47.226;39.702;2022-12-18T00:19:11;5.78;;;4.90;;
52650;SDS011;38537;47.226;39.702;2022-12-18T00:21:39;5.90;;;4.75;;
52650;SDS011;38537;47.226;39.702;2022-12-18T00:24:08;5.57;;;4.53;;
52650;SDS011;38537;47.226;39.702;2022-12-18T00:26:37;6.80;;;5.10;;
52650;SDS011;38537;47.226;39.702;2022-12-18T00:29:07;5.63;;;4.75;;
52650;SDS011;38537;47.226;39.702;2022-12-18T00:31:37;5.13;;;4.32;;
52650;SDS011;38537;47.226;39.702;2022-12-18T00:34:05;7.25;;;4.93;;
52650;SDS011;38537;47.226;39.702;2022-12-18T00:36:33;6.85;;;4.80;;
52650;SDS011;38537;47.226;39.702;2022-12-18T00:39:03;6.25;;;4.80;;
52650;SDS011;38537;47.226;39.702;2022-12-18T00:41:31;8.43;;;4.93;;
52650;SDS011;38537;47.226;39.702;2022-12-18T00:44:18;7.43;;;4.80;;
52650;SDS011;38537;47.226;39.702;2022-12-18T00:46:46;5.82;;;4.60;;
52650;SDS011;38537;47.226;39.702;2022-12-18T00:49:16;6.20;;;4.70;;
52650;SDS011;38537;47.226;39.702;2022-12-18T00:51:46;5.72;;;4.57;;
52650;SDS011;38537;47.226;39.702;2022-12-18T00:54:13;6.20;;;4.63;;
52650;SDS011;38537;47.226;39.702;2022-12-18T00:56:42;6.47;;;4.97;;
52650;SDS011;38537;47.226;39.702;2022-12-18T00:59:17;5.93;;;4.72;;
52650;SDS011;38537;47.226;39.702;2022-12-18T01:01:45;5.45;;;4.53;;
52650;SDS011;38537;47.226;39.702;2022-12-18T01:04:14;6.88;;;4.90;;
52650;SDS011;38537;47.226;39.702;2022-12-18T01:06:44;6.45;;;4.63;;
52650;SDS011;38537;47.226;39.702;2022-12-18T01:09:12;6.60;;;4.60;;
52650;SDS011;38537;47.226;39.702;2022-12-18T01:11:39;6.35;;;4.60;;
52650;SDS011;38537;47.226;39.702;2022-12-18T01:14:07;6.35;;;4.10;;
52650;SDS011;38537;47.226;39.702;2022-12-18T01:16:36;6.13;;;4.80;;
52650;SDS011;38537;47.226;39.702;2022-12-18T01:19:03;6.88;;;4.55;;
52650;SDS011;38537;47.226;39.702;2022-12-18T01:21:31;6.32;;;4.70;;
52650;SDS011;38537;47.226;39.702;2022-12-18T01:24:03;5.60;;;4.32;;
52650;SDS011;38537;47.226;39.702;2022-12-18T01:26:32;6.80;;;4.38;;
52650;SDS011;38537;47.226;39.702;2022-12-18T01:29:00;7.00;;;4.57;;
52650;SDS011;38537;47.226;39.702;2022-12-18T01:31:31;5.32;;;4.35;;
52650;SDS011;38537;47.226;39.702;2022-12-18T01:34:01;6.82;;;5.00;;
52650;SDS011;38537;47.226;39.702;2022-12-18T01:36:31;8.45;;;4.88;;
52650;SDS011;38537;47.226;39.702;2022-12-18T01:39:04;4.90;;;4.13;;
52650;SDS011;38537;47.226;39.702;2022-12-18T01:41:33;4.95;;;4.30;;
52650;SDS011;38537;47.226;39.702;2022-12-18T01:52:59;6.60;;;4.20;;
52650;SDS011;38537;47.226;39.702;2022-12-18T01:55:31;5.90;;;4.20;;
52650;SDS011;38537;47.226;39.702;2022-12-18T01:58:02;6.10;;;4.45;;
52650;SDS011;38537;47.226;39.702;2022-12-18T02:00:31;6.82;;;4.45;;
52650;SDS011;38537;47.226;39.702;2022-12-18T02:02:58;5.78;;;4.45;;
52650;SDS011;38537;47.226;39.702;2022-12-18T02:08:41;10.07;;;4.32;;
52650;SDS011;38537;47.226;39.702;2022-12-18T02:16:50;8.40;;;4.32;;
52650;SDS011;38537;47.226;39.702;2022-12-18T02:23:03;6.70;;;4.70;;
52650;SDS011;38537;47.226;39.702;2022-12-18T02:28:52;5.30;;;4.43;;
52650;SDS011;38537;47.226;39.702;2022-12-18T02:31:25;6.13;;;4.70;;
52650;SDS011;38537;47.226;39.702;2022-12-18T02:33:59;5.75;;;4.47;;
52650;SDS011;38537;47.226;39.702;2022-12-18T02:36:33;6.68;;;4.75;;
52650;SDS011;38537;47.226;39.702;2022-12-18T02:39:03;5.70;;;4.45;;
52650;SDS011;38537;47.226;39.702;2022-12-18T02:41:37;5.88;;;4.25;;
52650;SDS011;38537;47.226;39.702;2022-12-18T02:44:12;6.80;;;4.60;;
52650;SDS011;38537;47.226;39.702;2022-12-18T02:46:45;5.75;;;4.55;;
52650;SDS011;38537;47.226;39.702;2022-12-18T02:57:50;6.47;;;4.60;;
52650;SDS011;38537;47.226;39.702;2022-12-18T03:03:16;5.95;;;4.78;;
52650;SDS011;38537;47.226;39.702;2022-12-18T03:05:56;5.50;;;4.57;;
52650;SDS011;38537;47.226;39.702;2022-12-18T03:08:47;5.75;;;4.40;;
52650;SDS011;38537;47.226;39.702;2022-12-18T03:11:25;6.57;;;4.45;;
52650;SDS011;38537;47.226;39.702;2022-12-18T03:14:16;6.25;;;4.70;;
52650;SDS011;38537;47.226;39.702;2022-12-18T03:16:49;5.63;;;4.70;;
52650;SDS011;38537;47.226;39.702;2022-12-18T03:19:21;5.63;;;4.60;;
52650;SDS011;38537;47.226;39.702;2022-12-18T03:21:57;7.38;;;4.50;;
52650;SDS011;38537;47.226;39.702;2022-12-18T03:24:35;6.40;;;4.30;;
52650;SDS011;38537;47.226;39.702;2022-12-18T03:27:11;4.70;;;4.18;;
52650;SDS011;38537;47.226;39.702;2022-12-18T03:29:48;6.07;;;4.30;;
52650;SDS011;38537;47.226;39.702;2022-12-18T03:32:27;6.37;;;4.73;;
52650;SDS011;38537;47.226;39.702;2022-12-18T03:34:59;6.53;;;4.93;;
52650;SDS011;38537;47.226;39.702;2022-12-18T03:37:35;6.18;;;4.38;;
52650;SDS011;38537;47.226;39.702;2022-12-18T03:40:04;8.10;;;4.60;;
52650;SDS011;38537;47.226;39.702;2022-12-18T03:45:30;6.95;;;5.15;;
52650;SDS011;38537;47.226;39.702;2022-12-18T03:51:14;8.13;;;5.53;;
52650;SDS011;38537;47.226;39.702;2022-12-18T03:54:06;10.10;;;6.50;;
52650;SDS011;38537;47.226;39.702;2022-12-18T03:56:44;8.02;;;5.63;;
52650;SDS011;38537;47.226;39.702;2022-12-18T03:59:15;10.93;;;5.68;;
52650;SDS011;38537;47.226;39.702;2022-12-18T04:01:46;7.20;;;5.40;;
52650;SDS011;38537;47.226;39.702;2022-12-18T04:04:16;7.15;;;5.32;;
52650;SDS011;38537;47.226;39.702;2022-12-18T04:06:46;9.18;;;6.00;;
52650;SDS011;38537;47.226;39.702;2022-12-18T04:09:18;10.32;;;6.35;;
52650;SDS011;38537;47.226;39.702;2022-12-18T04:11:47;8.52;;;6.07;;
52650;SDS011;38537;47.226;39.702;2022-12-18T04:14:15;9.77;;;6.50;;
52650;SDS011;38537;47.226;39.702;2022-12-18T04:16:48;9.43;;;6.70;;
52650;SDS011;38537;47.226;39.702;2022-12-18T04:19:18;7.20;;;5.95;;
52650;SDS011;38537;47.226;39.702;2022-12-18T04:21:48;12.88;;;6.28;;
52650;SDS011;38537;47.226;39.702;2022-12-18T04:24:16;10.85;;;5.88;;
52650;SDS011;38537;47.226;39.702;2022-12-18T04:27:01;9.13;;;6.50;;
52650;SDS011;38537;47.226;39.702;2022-12-18T04:29:32;9.48;;;7.07;;
52650;SDS011;38537;47.226;39.702;2022-12-18T04:32:00;8.88;;;6.30;;
52650;SDS011;38537;47.226;39.702;2022-12-18T04:34:28;10.38;;;6.38;;
52650;SDS011;38537;47.226;39.702;2022-12-18T04:36:57;9.95;;;5.85;;
52650;SDS011;38537;47.226;39.702;2022-12-18T04:39:25;9.68;;;5.80;;
52650;SDS011;38537;47.226;39.702;2022-12-18T04:42:00;8.65;;;6.07;;
52650;SDS011;38537;47.226;39.702;2022-12-18T04:44:27;9.85;;;5.78;;
52650;SDS011;38537;47.226;39.702;2022-12-18T04:46:55;8.90;;;5.90;;
52650;SDS011;38537;47.226;39.702;2022-12-18T04:49:22;7.40;;;5.80;;
52650;SDS011;38537;47.226;39.702;2022-12-18T04:51:50;9.48;;;6.82;;
52650;SDS011;38537;47.226;39.702;2022-12-18T04:54:21;9.30;;;6.90;;
52650;SDS011;38537;47.226;39.702;2022-12-18T04:56:49;10.52;;;6.03;;
52650;SDS011;38537;47.226;39.702;2022-12-18T04:59:16;9.57;;;6.32;;
52650;SDS011;38537;47.226;39.702;2022-12-18T05:01:43;12.35;;;6.75;;
52650;SDS011;38537;47.226;39.702;2022-12-18T05:04:10;8.73;;;5.93;;
52650;SDS011;38537;47.226;39.702;2022-12-18T05:06:38;10.43;;;6.15;;
52650;SDS011;38537;47.226;39.702;2022-12-18T05:09:05;9.48;;;6.05;;
52650;SDS011;38537;47.226;39.702;2022-12-18T05:11:32;9.65;;;6.85;;
52650;SDS011;38537;47.226;39.702;2022-12-18T05:14:03;8.65;;;6.68;;
52650;SDS011;38537;47.226;39.702;2022-12-18T05:16:31;11.77;;;6.88;;
52650;SDS011;38537;47.226;39.702;2022-12-18T05:18:58;10.45;;;6.47;;
52650;SDS011;38537;47.226;39.702;2022-12-18T05:21:25;9.10;;;6.50;;
52650;SDS011;38537;47.226;39.702;2022-12-18T05:23:53;8.50;;;6.50;;
52650;SDS011;38537;47.226;39.702;2022-12-18T05:26:21;10.98;;;6.93;;
52650;SDS011;38537;47.226;39.702;2022-12-18T05:28:49;11.25;;;7.65;;
52650;SDS011;38537;47.226;39.702;2022-12-18T05:31:16;11.57;;;7.72;;
52650;SDS011;38537;47.226;39.702;2022-12-18T05:33:44;15.25;;;8.52;;
52650;SDS011;38537;47.226;39.702;2022-12-18T05:36:11;11.40;;;7.22;;
52650;SDS011;38537;47.226;39.702;2022-12-18T05:38:39;9.75;;;7.43;;
52650;SDS011;38537;47.226;39.702;2022-12-18T05:41:08;10.63;;;7.47;;
52650;SDS011;38537;47.226;39.702;2022-12-18T05:43:36;9.45;;;7.55;;
52650;SDS011;38537;47.226;39.702;2022-12-18T05:46:07;12.00;;;8.13;;
52650;SDS011;38537;47.226;39.702;2022-12-18T05:48:38;15.32;;;8.95;;
52650;SDS011;38537;47.226;39.702;2022-12-18T05:51:06;12.50;;;9.25;;
52650;SDS011;38537;47.226;39.702;2022-12-18T05:53:35;13.10;;;8.85;;
52650;SDS011;38537;47.226;39.702;2022-12-18T05:56:05;10.90;;;7.72;;
52650;SDS011;38537;47.226;39.702;2022-12-18T05:58:34;12.65;;;7.95;;
52650;SDS011;38537;47.226;39.702;2022-12-18T06:01:12;14.00;;;9.68;;
52650;SDS011;38537;47.226;39.702;2022-12-18T06:03:43;13.55;;;8.80;;
52650;SDS011;38537;47.226;39.702;2022-12-18T06:06:13;11.70;;;7.47;;
52650;SDS011;38537;47.226;39.702;2022-12-18T06:08:42;10.85;;;8.18;;
52650;SDS011;38537;47.226;39.702;2022-12-18T06:11:12;14.80;;;8.90;;
52650;SDS011;38537;47.226;39.702;2022-12-18T06:13:42;14.63;;;9.10;;
52650;SDS011;38537;47.226;39.702;2022-12-18T06:16:09;12.82;;;8.23;;
52650;SDS011;38537;47.226;39.702;2022-12-18T06:18:37;16.55;;;9.40;;
52650;SDS011;38537;47.226;39.702;2022-12-18T06:21:05;12.35;;;7.97;;
52650;SDS011;38537;47.226;39.702;2022-12-18T06:23:32;14.25;;;8.32;;
52650;SDS011;38537;47.226;39.702;2022-12-18T06:26:03;14.13;;;8.23;;
52650;SDS011;38537;47.226;39.702;2022-12-18T06:28:34;10.65;;;7.60;;
52650;SDS011;38537;47.226;39.702;2022-12-18T06:31:02;11.35;;;7.63;;
52650;SDS011;38537;47.226;39.702;2022-12-18T06:33:31;11.50;;;7.07;;
52650;SDS011;38537;47.226;39.702;2022-12-18T06:36:00;12.93;;;8.30;;
52650;SDS011;38537;47.226;39.702;2022-12-18T06:38:29;12.82;;;7.97;;
52650;SDS011;38537;47.226;39.702;2022-12-18T06:40:56;13.50;;;9.57;;
52650;SDS011;38537;47.226;39.702;2022-12-18T06:43:23;12.75;;;8.05;;
52650;SDS011;38537;47.226;39.702;2022-12-18T06:45:51;11.98;;;8.63;;
52650;SDS011;38537;47.226;39.702;2022-12-18T06:48:19;16.80;;;9.15;;
52650;SDS011;38537;47.226;39.702;2022-12-18T06:50:46;14.02;;;8.27;;
52650;SDS011;38537;47.226;39.702;2022-12-18T06:53:14;16.90;;;9.48;;
52650;SDS011;38537;47.226;39.702;2022-12-18T06:55:41;15.27;;;9.50;;
52650;SDS011;38537;47.226;39.702;2022-12-18T06:58:09;16.02;;;9.70;;
52650;SDS011;38537;47.226;39.702;2022-12-18T07:00:37;16.80;;;9.57;;
52650;SDS011;38537;47.226;39.702;2022-12-18T07:03:04;13.15;;;8.68;;
52650;SDS011;38537;47.226;39.702;2022-12-18T07:05:31;11.75;;;8.05;;
52650;SDS011;38537;47.226;39.702;2022-12-18T07:07:59;18.33;;;9.20;;
52650;SDS011;38537;47.226;39.702;2022-12-18T07:10:26;13.57;;;7.97;;
52650;SDS011;38537;47.226;39.702;2022-12-18T07:12:54;16.40;;;9.13;;
52650;SDS011;38537;47.226;39.702;2022-12-18T07:15:21;12.40;;;7.85;;
52650;SDS011;38537;47.226;39.702;2022-12-18T07:17:48;16.02;;;8.98;;
52650;SDS011;38537;47.226;39.702;2022-12-18T07:20:16;14.98;;;9.50;;
52650;SDS011;38537;47.226;39.702;2022-12-18T07:22:43;14.55;;;9.13;;
52650;SDS011;38537;47.226;39.702;2022-12-18T07:25:10;16.17;;;8.60;;
52650;SDS011;38537;47.226;39.702;2022-12-18T07:27:38;16.42;;;8.90;;
52650;SDS011;38537;47.226;39.702;2022-12-18T07:30:06;14.82;;;9.02;;
52650;SDS011;38537;47.226;39.702;2022-12-18T07:32:34;16.75;;;8.90;;
52650;SDS011;38537;47.226;39.702;2022-12-18T07:35:01;19.20;;;9.10;;
52650;SDS011;38537;47.226;39.702;2022-12-18T07:37:29;13.73;;;8.70;;
52650;SDS011;38537;47.226;39.702;2022-12-18T07:39:56;13.38;;;8.70;;
52650;SDS011;38537;47.226;39.702;2022-12-18T07:42:23;17.48;;;8.68;;
52650;SDS011;38537;47.226;39.702;2022-12-18T07:44:59;17.23;;;9.23;;
52650;SDS011;38537;47.226;39.702;2022-12-18T07:47:29;16.85;;;8.82;;
52650;SDS011;38537;47.226;39.702;2022-12-18T07:49:56;15.88;;;8.32;;
52650;SDS011;38537;47.226;39.702;2022-12-18T07:52:25;14.50;;;8.88;;
52650;SDS011;38537;47.226;39.702;2022-12-18T07:54:52;18.58;;;9.55;;
52650;SDS011;38537;47.226;39.702;2022-12-18T07:57:20;19.15;;;9.13;;
52650;SDS011;38537;47.226;39.702;2022-12-18T08:00:07;18.10;;;8.82;;
52650;SDS011;38537;47.226;39.702;2022-12-18T08:02:38;16.80;;;7.85;;
52650;SDS011;38537;47.226;39.702;2022-12-18T08:05:07;13.07;;;7.40;;
52650;SDS011;38537;47.226;39.702;2022-12-18T08:07:35;17.40;;;7.93;;
52650;SDS011;38537;47.226;39.702;2022-12-18T08:10:02;18.17;;;8.48;;
52650;SDS011;38537;47.226;39.702;2022-12-18T08:12:31;14.82;;;8.32;;
52650;SDS011;38537;47.226;39.702;2022-12-18T08:15:01;15.65;;;8.07;;
52650;SDS011;38537;47.226;39.702;2022-12-18T08:17:30;11.32;;;7.15;;
52650;SDS011;38537;47.226;39.702;2022-12-18T08:19:57;17.02;;;7.65;;
52650;SDS011;38537;47.226;39.702;2022-12-18T08:22:24;17.58;;;8.77;;
52650;SDS011;38537;47.226;39.702;2022-12-18T08:24:52;16.73;;;8.20;;
52650;SDS011;38537;47.226;39.702;2022-12-18T08:27:19;16.50;;;8.20;;
52650;SDS011;38537;47.226;39.702;2022-12-18T08:29:56;21.75;;;9.25;;
52650;SDS011;38537;47.226;39.702;2022-12-18T08:32:24;17.20;;;7.82;;
52650;SDS011;38537;47.226;39.702;2022-12-18T08:34:53;16.33;;;8.45;;
52650;SDS011;38537;47.226;39.702;2022-12-18T08:37:21;13.30;;;7.63;;
52650;SDS011;38537;47.226;39.702;2022-12-18T08:39:48;13.82;;;7.55;;
52650;SDS011;38537;47.226;39.702;2022-12-18T08:42:15;12.50;;;6.90;;
52650;SDS011;38537;47.226;39.702;2022-12-18T08:45:02;20.92;;;7.75;;
52650;SDS011;38537;47.226;39.702;2022-12-18T08:47:30;12.60;;;7.38;;
52650;SDS011;38537;47.226;39.702;2022-12-18T08:49:57;11.80;;;7.43;;
52650;SDS011;38537;47.226;39.702;2022-12-18T08:52:25;17.65;;;8.07;;
52650;SDS011;38537;47.226;39.702;2022-12-18T08:54:52;12.00;;;7.80;;
52650;SDS011;38537;47.226;39.702;2022-12-18T08:57:19;12.98;;;8.10;;
52650;SDS011;38537;47.226;39.702;2022-12-18T08:59:47;11.75;;;7.95;;
52650;SDS011;38537;47.226;39.702;2022-12-18T09:02:15;12.52;;;7.72;;
52650;SDS011;38537;47.226;39.702;2022-12-18T09:04:42;33.58;;;9.40;;
52650;SDS011;38537;47.226;39.702;2022-12-18T09:07:12;12.65;;;7.78;;
52650;SDS011;38537;47.226;39.702;2022-12-18T09:09:48;12.35;;;7.65;;
52650;SDS011;38537;47.226;39.702;2022-12-18T09:12:39;9.88;;;6.70;;
52650;SDS011;38537;47.226;39.702;2022-12-18T09:15:06;10.68;;;7.07;;
52650;SDS011;38537;47.226;39.702;2022-12-18T09:17:34;18.17;;;7.30;;
52650;SDS011;38537;47.226;39.702;2022-12-18T09:20:01;20.98;;;7.30;;
52650;SDS011;38537;47.226;39.702;2022-12-18T09:22:29;9.45;;;6.70;;
52650;SDS011;38537;47.226;39.702;2022-12-18T09:24:57;8.65;;;6.63;;
52650;SDS011;38537;47.226;39.702;2022-12-18T09:27:35;12.70;;;7.45;;
52650;SDS011;38537;47.226;39.702;2022-12-18T09:30:06;8.75;;;6.20;;
52650;SDS011;38537;47.226;39.702;2022-12-18T09:32:34;9.40;;;5.82;;
52650;SDS011;38537;47.226;39.702;2022-12-18T09:35:02;7.13;;;5.18;;
52650;SDS011;38537;47.226;39.702;2022-12-18T09:37:29;6.88;;;5.05;;
52650;SDS011;38537;47.226;39.702;2022-12-18T09:39:56;7.53;;;5.30;;
52650;SDS011;38537;47.226;39.702;2022-12-18T09:42:23;7.05;;;5.38;;
52650;SDS011;38537;47.226;39.702;2022-12-18T09:44:52;6.13;;;4.43;;
52650;SDS011;38537;47.226;39.702;2022-12-18T09:49:52;7.40;;;4.63;;
52650;SDS011;38537;47.226;39.702;2022-12-18T09:52:27;6.70;;;4.30;;
52650;SDS011;38537;47.226;39.702;2022-12-18T09:57:42;5.90;;;4.22;;
52650;SDS011;38537;47.226;39.702;2022-12-18T10:02:44;5.95;;;4.13;;
52650;SDS011;38537;47.226;39.702;2022-12-18T10:05:14;5.32;;;4.05;;
52650;SDS011;38537;47.226;39.702;2022-12-18T10:07:47;6.00;;;3.70;;
52650;SDS011;38537;47.226;39.702;2022-12-18T10:10:30;5.57;;;3.50;;
52650;SDS011;38537;47.226;39.702;2022-12-18T10:13:20;4.60;;;3.28;;
52650;SDS011;38537;47.226;39.702;2022-12-18T10:16:02;4.93;;;3.50;;
52650;SDS011;38537;47.226;39.702;2022-12-18T10:24:43;4.65;;;3.60;;
52650;SDS011;38537;47.226;39.702;2022-12-18T10:27:16;4.55;;;3.60;;
52650;SDS011;38537;47.226;39.702;2022-12-18T10:29:48;5.18;;;3.95;;
52650;SDS011;38537;47.226;39.702;2022-12-18T10:32:17;5.85;;;4.13;;
52650;SDS011;38537;47.226;39.702;2022-12-18T10:34:51;5.22;;;4.18;;
52650;SDS011;38537;47.226;39.702;2022-12-18T10:37:28;4.72;;;4.00;;
52650;SDS011;38537;47.226;39.702;2022-12-18T10:43:35;5.05;;;4.40;;
52650;SDS011;38537;47.226;39.702;2022-12-18T10:45:41;5.45;;;4.35;;
52650;SDS011;38537;47.226;39.702;2022-12-18T10:48:19;6.00;;;3.70;;
52650;SDS011;38537;47.226;39.702;2022-12-18T10:50:48;4.40;;;3.15;;
52650;SDS011;38537;47.226;39.702;2022-12-18T10:53:38;3.85;;;3.33;;
52650;SDS011;38537;47.226;39.702;2022-12-18T10:56:08;4.57;;;3.60;;
52650;SDS011;38537;47.226;39.702;2022-12-18T10:58:37;5.28;;;3.72;;
52650;SDS011;38537;47.226;39.702;2022-12-18T11:01:16;4.47;;;3.50;;
52650;SDS011;38537;47.226;39.702;2022-12-18T11:06:28;4.65;;;3.80;;
52650;SDS011;38537;47.226;39.702;2022-12-18T11:11:40;6.05;;;4.53;;
52650;SDS011;38537;47.226;39.702;2022-12-18T11:14:12;4.90;;;4.28;;
52650;SDS011;38537;47.226;39.702;2022-12-18T11:16:55;6.47;;;5.00;;
52650;SDS011;38537;47.226;39.702;2022-12-18T11:19:44;7.13;;;5.00;;
52650;SDS011;38537;47.226;39.702;2022-12-18T11:22:23;11.60;;;5.80;;
52650;SDS011;38537;47.226;39.702;2022-12-18T11:25:29;7.78;;;5.75;;
52650;SDS011;38537;47.226;39.702;2022-12-18T11:28:03;7.72;;;6.30;;
52650;SDS011;38537;47.226;39.702;2022-12-18T11:30:34;7.47;;;5.80;;
52650;SDS011;38537;47.226;39.702;2022-12-18T11:33:05;9.00;;;6.18;;
52650;SDS011;38537;47.226;39.702;2022-12-18T11:38:07;7.68;;;4.72;;
52650;SDS011;38537;47.226;39.702;2022-12-18T11:40:49;5.80;;;4.78;;
52650;SDS011;38537;47.226;39.702;2022-12-18T11:46:43;6.10;;;4.70;;
52650;SDS011;38537;47.226;39.702;2022-12-18T11:51:57;7.75;;;5.05;;
52650;SDS011;38537;47.226;39.702;2022-12-18T11:54:31;7.20;;;5.18;;
52650;SDS011;38537;47.226;39.702;2022-12-18T11:57:02;8.52;;;5.80;;
52650;SDS011;38537;47.226;39.702;2022-12-18T12:07:46;39.38;;;8.73;;
52650;SDS011;38537;47.226;39.702;2022-12-18T12:13:33;11.32;;;8.02;;
52650;SDS011;38537;47.226;39.702;2022-12-18T12:18:51;23.25;;;9.27;;
52650;SDS011;38537;47.226;39.702;2022-12-18T12:24:45;13.88;;;9.10;;
52650;SDS011;38537;47.226;39.702;2022-12-18T12:30:08;14.80;;;9.63;;
52650;SDS011;38537;47.226;39.702;2022-12-18T12:38:46;20.08;;;10.10;;
52650;SDS011;38537;47.226;39.702;2022-12-18T12:41:20;43.47;;;11.98;;
52650;SDS011;38537;47.226;39.702;2022-12-18T12:44:13;27.35;;;11.32;;
52650;SDS011;38537;47.226;39.702;2022-12-18T12:46:44;18.83;;;11.63;;
52650;SDS011;38537;47.226;39.702;2022-12-18T12:49:32;34.03;;;11.90;;
52650;SDS011;38537;47.226;39.702;2022-12-18T12:52:13;47.05;;;13.43;;
52650;SDS011;38537;47.226;39.702;2022-12-18T12:54:43;65.95;;;14.07;;
52650;SDS011;38537;47.226;39.702;2022-12-18T12:57:20;57.00;;;15.02;;
52650;SDS011;38537;47.226;39.702;2022-12-18T13:08:08;36.67;;;13.38;;
52650;SDS011;38537;47.226;39.702;2022-12-18T13:10:41;153.35;;;16.67;;
52650;SDS011;38537;47.226;39.702;2022-12-18T13:15:49;87.55;;;14.98;;
52650;SDS011;38537;47.226;39.702;2022-12-18T13:18:34;56.38;;;14.20;;
52650;SDS011;38537;47.226;39.702;2022-12-18T13:21:03;38.60;;;13.50;;
52650;SDS011;38537;47.226;39.702;2022-12-18T13:23:41;206.90;;;20.52;;
52650;SDS011;38537;47.226;39.702;2022-12-18T13:34:25;23.60;;;13.45;;
52650;SDS011;38537;47.226;39.702;2022-12-18T13:36:56;24.88;;;14.27;;
52650;SDS011;38537;47.226;39.702;2022-12-18T13:39:45;31.05;;;15.48;;
52650;SDS011;38537;47.226;39.702;2022-12-18T13:45:00;31.33;;;16.80;;
52650;SDS011;38537;47.226;39.702;2022-12-18T13:50:20;26.45;;;16.02;;
52650;SDS011;38537;47.226;39.702;2022-12-18T13:53:02;30.20;;;17.23;;
52650;SDS011;38537;47.226;39.702;2022-12-18T13:55:32;27.60;;;15.75;;
52650;SDS011;38537;47.226;39.702;2022-12-18T13:58:04;27.75;;;17.13;;
52650;SDS011;38537;47.226;39.702;2022-12-18T14:00:32;30.35;;;16.88;;
52650;SDS011;38537;47.226;39.702;2022-12-18T14:03:00;26.30;;;16.48;;
52650;SDS011;38537;47.226;39.702;2022-12-18T14:05:34;28.15;;;17.02;;
52650;SDS011;38537;47.226;39.702;2022-12-18T14:08:13;26.88;;;15.90;;
52650;SDS011;38537;47.226;39.702;2022-12-18T14:10:42;25.65;;;16.27;;
52650;SDS011;38537;47.226;39.702;2022-12-18T14:13:15;26.27;;;17.48;;
52650;SDS011;38537;47.226;39.702;2022-12-18T14:15:48;29.67;;;17.67;;
52650;SDS011;38537;47.226;39.702;2022-12-18T14:21:23;28.05;;;16.95;;
52650;SDS011;38537;47.226;39.702;2022-12-18T14:26:46;24.92;;;16.77;;
52650;SDS011;38537;47.226;39.702;2022-12-18T14:34:44;24.05;;;16.63;;
52650;SDS011;38537;47.226;39.702;2022-12-18T14:37:16;22.75;;;15.93;;
52650;SDS011;38537;47.226;39.702;2022-12-18T14:42:22;25.73;;;16.33;;
52650;SDS011;38537;47.226;39.702;2022-12-18T14:44:49;24.50;;;16.05;;
52650;SDS011;38537;47.226;39.702;2022-12-18T14:47:36;22.80;;;16.30;;
52650;SDS011;38537;47.226;39.702;2022-12-18T14:50:03;23.05;;;16.63;;
52650;SDS011;38537;47.226;39.702;2022-12-18T14:52:40;20.00;;;13.93;;
52650;SDS011;38537;47.226;39.702;2022-12-18T14:55:14;26.38;;;15.93;;
52650;SDS011;38537;47.226;39.702;2022-12-18T14:57:43;20.88;;;14.20;;
52650;SDS011;38537;47.226;39.702;2022-12-18T15:00:15;19.65;;;14.05;;
52650;SDS011;38537;47.226;39.702;2022-12-18T15:02:54;18.35;;;14.25;;
52650;SDS011;38537;47.226;39.702;2022-12-18T15:05:30;19.85;;;14.55;;
52650;SDS011;38537;47.226;39.702;2022-12-18T15:07:58;17.85;;;13.23;;
52650;SDS011;38537;47.226;39.702;2022-12-18T15:18:00;17.67;;;13.00;;
52650;SDS011;38537;47.226;39.702;2022-12-18T15:20:33;18.45;;;13.70;;
52650;SDS011;38537;47.226;39.702;2022-12-18T15:23:16;19.60;;;13.55;;
52650;SDS011;38537;47.226;39.702;2022-12-18T15:25:46;19.00;;;13.88;;
52650;SDS011;38537;47.226;39.702;2022-12-18T15:28:19;20.88;;;14.60;;
52650;SDS011;38537;47.226;39.702;2022-12-18T15:31:04;21.42;;;14.82;;
52650;SDS011;38537;47.226;39.702;2022-12-18T15:33:45;20.67;;;14.82;;
52650;SDS011;38537;47.226;39.702;2022-12-18T15:36:30;19.83;;;13.68;;
52650;SDS011;38537;47.226;39.702;2022-12-18T15:38:57;23.00;;;15.05;;
52650;SDS011;38537;47.226;39.702;2022-12-18T15:41:34;20.25;;;14.32;;
52650;SDS011;38537;47.226;39.702;2022-12-18T15:44:15;22.90;;;15.80;;
52650;SDS011;38537;47.226;39.702;2022-12-18T15:46:49;21.30;;;15.38;;
52650;SDS011;38537;47.226;39.702;2022-12-18T15:49:16;23.65;;;15.77;;
52650;SDS011;38537;47.226;39.702;2022-12-18T15:51:44;20.75;;;15.15;;
52650;SDS011;38537;47.226;39.702;2022-12-18T15:54:14;22.90;;;16.77;;
52650;SDS011;38537;47.226;39.702;2022-12-18T15:57:01;22.35;;;16.00;;
52650;SDS011;38537;47.226;39.702;2022-12-18T15:59:47;23.17;;;15.65;;
52650;SDS011;38537;47.226;39.702;2022-12-18T16:02:16;22.42;;;16.05;;
52650;SDS011;38537;47.226;39.702;2022-12-18T16:04:45;23.67;;;17.70;;
52650;SDS011;38537;47.226;39.702;2022-12-18T16:07:15;26.80;;;17.40;;
52650;SDS011;38537;47.226;39.702;2022-12-18T16:09:48;22.58;;;17.13;;
52650;SDS011;38537;47.226;39.702;2022-12-18T16:12:20;21.75;;;15.68;;
52650;SDS011;38537;47.226;39.702;2022-12-18T16:14:49;22.63;;;15.85;;
52650;SDS011;38537;47.226;39.702;2022-12-18T16:17:19;22.85;;;16.08;;
52650;SDS011;38537;47.226;39.702;2022-12-18T16:19:46;21.50;;;15.77;;
52650;SDS011;38537;47.226;39.702;2022-12-18T16:22:21;22.88;;;15.50;;
52650;SDS011;38537;47.226;39.702;2022-12-18T16:24:50;22.35;;;15.23;;
52650;SDS011;38537;47.226;39.702;2022-12-18T16:27:19;22.15;;;15.80;;
52650;SDS011;38537;47.226;39.702;2022-12-18T16:29:47;22.67;;;15.75;;
52650;SDS011;38537;47.226;39.702;2022-12-18T16:32:16;18.27;;;13.52;;
52650;SDS011;38537;47.226;39.702;2022-12-18T16:34:45;17.83;;;13.05;;
52650;SDS011;38537;47.226;39.702;2022-12-18T16:37:13;19.05;;;13.73;;
52650;SDS011;38537;47.226;39.702;2022-12-18T16:39:42;18.77;;;14.40;;
52650;SDS011;38537;47.226;39.702;2022-12-18T16:42:18;20.25;;;14.25;;
52650;SDS011;38537;47.226;39.702;2022-12-18T16:44:47;17.70;;;14.38;;
52650;SDS011;38537;47.226;39.702;2022-12-18T16:47:16;17.38;;;13.73;;
52650;SDS011;38537;47.226;39.702;2022-12-18T16:49:43;17.98;;;13.60;;
52650;SDS011;38537;47.226;39.702;2022-12-18T16:52:12;17.52;;;13.10;;
52650;SDS011;38537;47.226;39.702;2022-12-18T16:54:39;19.05;;;14.18;;
52650;SDS011;38537;47.226;39.702;2022-12-18T16:57:08;18.27;;;13.50;;
52650;SDS011;38537;47.226;39.702;2022-12-18T16:59:39;18.27;;;13.70;;
52650;SDS011;38537;47.226;39.702;2022-12-18T17:02:10;16.95;;;13.90;;
52650;SDS011;38537;47.226;39.702;2022-12-18T17:04:43;18.23;;;13.82;;
52650;SDS011;38537;47.226;39.702;2022-12-18T17:07:11;19.23;;;15.35;;
52650;SDS011;38537;47.226;39.702;2022-12-18T17:09:39;18.58;;;14.10;;
52650;SDS011;38537;47.226;39.702;2022-12-18T17:12:07;17.20;;;14.15;;
52650;SDS011;38537;47.226;39.702;2022-12-18T17:14:35;16.45;;;13.25;;